Time;durP1;ratioP1;P1;durP2;ratioP2;P2;SDS_P1;SDS_P2;PMS_P1;PMS_P2;Temp;Humidity;BMP_temperature;BMP_pressure;BME280_temperature;BME280_humidity;BME280_pressure;Samples;Min_cycle;Max_cycle;Signal;HPM_P1;HPM_P2
2022/08/02 00:01:55;;;;;;;;;;;;;;;18.41;79.09;99307.72;4993826;28;897;-66
2022/08/02 00:04:22;;;;;;;;;;;;;;;18.53;78.86;99309.56;4994136;28;835;-66
2022/08/02 00:06:48;;;;;;;;;;;;;;;18.70;78.61;99304.41;4993757;28;831;-66
2022/08/02 00:09:15;;;;;;;;;;;;;;;18.98;77.52;99309.94;4993780;28;874;-66
2022/08/02 00:11:42;;;;;;;;;;;;;;;19.11;77.00;99307.69;4993565;28;1976;-66
2022/08/02 00:14:09;;;;;;;;;;;;;;;19.17;76.57;99307.84;4993650;28;870;-67
2022/08/02 00:16:35;;;;;;;;;;;;;;;19.31;76.26;99309.97;4993559;28;959;-66
2022/08/02 00:19:03;;;;;;;;;;;;;;;19.44;75.59;99311.75;4993485;28;886;-67
2022/08/02 00:21:29;;;;;;;;;;;;;;;19.53;75.13;99315.28;4993442;28;890;-66
2022/08/02 00:23:55;;;;;;;;;;;;;;;19.61;74.68;99317.72;4993504;28;814;-66
2022/08/02 00:26:22;;;;;;;;;;;;;;;19.72;74.11;99309.59;4993426;28;830;-67
2022/08/02 00:28:47;;;;;;;;;;;;;;;19.59;74.21;99309.81;4993478;28;850;-67
2022/08/02 00:31:14;;;;;;;;;;;;;;;19.36;74.61;99312.09;4993604;28;1953;-67
2022/08/02 00:33:40;;;;;;;;;;;;;;;19.15;75.21;99311.09;4975964;28;1436;-66
2022/08/02 00:36:07;;;;;;;;;;;;;;;19.04;75.37;99310.84;4993415;28;849;-66
2022/08/02 00:38:34;;;;;;;;;;;;;;;18.93;75.58;99316.97;4993705;28;780;-66
2022/08/02 00:41:00;;;;;;;;;;;;;;;18.83;75.82;99311.88;4993992;28;760;-66
2022/08/02 00:43:26;;;;;;;;;;;;;;;18.76;75.83;99313.72;4993362;28;777;-67
2022/08/02 00:45:53;;;;;;;;;;;;;;;18.69;76.18;99316.84;4975368;28;1244;-66
2022/08/02 00:48:19;;;;;;;;;;;;;;;18.63;76.28;99318.72;4992853;28;914;-67
2022/08/02 00:50:46;;;;;;;;;;;;;;;18.55;76.46;99321.06;4992838;28;1910;-67
2022/08/02 00:53:12;;;;;;;;;;;;;;;18.47;76.86;99317.03;4992896;28;826;-67
2022/08/02 00:55:39;;;;;;;;;;;;;;;18.43;77.26;99318.44;4992468;28;816;-67
2022/08/02 00:58:07;;;;;;;;;;;;;;;18.46;77.21;99321.09;4992788;28;812;-67
2022/08/02 01:00:33;;;;;;;;;;;;;;;18.44;77.41;99317.97;4992770;28;851;-66
2022/08/02 01:02:59;;;;;;;;;;;;;;;18.44;77.51;99322.81;4992768;28;878;-66
2022/08/02 01:05:26;;;;;;;;;;;;;;;18.40;77.74;99325.75;4992718;28;878;-66
2022/08/02 01:07:53;;;;;;;;;;;;;;;18.34;77.89;99320.00;4992853;28;819;-66
2022/08/02 01:10:19;;;;;;;;;;;;;;;18.32;78.06;99310.53;4992854;28;1945;-67
2022/08/02 01:12:46;;;;;;;;;;;;;;;18.30;78.21;99316.59;4992605;28;878;-67
2022/08/02 01:15:13;;;;;;;;;;;;;;;18.30;78.47;99318.59;4992534;28;799;-67
2022/08/02 01:17:49;;;;;;;;;;;;;;;18.30;78.46;99308.19;4992584;28;835;-66
2022/08/02 01:20:18;;;;;;;;;;;;;;;18.36;78.40;99316.75;4992581;28;866;-67
2022/08/02 01:23:01;;;;;;;;;;;;;;;18.42;78.36;99312.06;4992516;28;874;-66
2022/08/02 01:25:35;;;;;;;;;;;;;;;18.48;78.17;99313.00;4992630;28;921;-66
2022/08/02 01:28:04;;;;;;;;;;;;;;;18.51;77.95;99311.28;4992698;28;870;-66
2022/08/02 01:30:33;;;;;;;;;;;;;;;18.50;77.94;99307.72;4992345;28;1941;-66
2022/08/02 01:33:01;;;;;;;;;;;;;;;18.59;77.67;99308.94;4992672;28;901;-66
2022/08/02 01:35:38;;;;;;;;;;;;;;;18.64;77.48;99309.06;4992272;28;886;-67
2022/08/02 01:38:28;;;;;;;;;;;;;;;18.60;77.70;99310.47;4992392;28;831;-67
2022/08/02 01:40:56;;;;;;;;;;;;;;;18.54;77.77;99308.34;4982285;28;1200;-67
2022/08/02 01:43:24;;;;;;;;;;;;;;;18.49;77.92;99317.34;4992218;28;929;-67
2022/08/02 01:45:52;;;;;;;;;;;;;;;18.42;78.34;99306.47;4992094;28;1490;-67
2022/08/02 01:48:19;;;;;;;;;;;;;;;18.56;78.08;99316.25;4992082;28;918;-67
2022/08/02 01:50:47;;;;;;;;;;;;;;;18.59;77.68;99318.13;4991956;28;1961;-68
2022/08/02 01:53:14;;;;;;;;;;;;;;;18.61;77.84;99318.41;4974598;28;1325;-67
2022/08/02 01:55:44;;;;;;;;;;;;;;;18.65;77.37;99318.25;4974565;28;1299;-67
2022/08/02 01:58:13;;;;;;;;;;;;;;;18.62;77.61;99316.38;4992334;28;796;-67
2022/08/02 02:00:41;;;;;;;;;;;;;;;18.62;77.50;99322.75;4992079;28;843;-67
2022/08/02 02:03:11;;;;;;;;;;;;;;;18.59;77.42;99323.72;4992032;28;815;-67
2022/08/02 02:05:38;;;;;;;;;;;;;;;18.55;77.21;99325.88;4993158;28;811;-67
2022/08/02 02:08:06;;;;;;;;;;;;;;;18.61;77.81;99318.41;4995905;28;893;-66
2022/08/02 02:10:34;;;;;;;;;;;;;;;18.82;77.50;99322.28;4995846;28;1959;-67
2022/08/02 02:13:05;;;;;;;;;;;;;;;19.03;76.86;99314.88;4995820;28;824;-67
2022/08/02 02:15:33;;;;;;;;;;;;;;;19.21;76.06;99322.47;4995997;28;851;-67
2022/08/02 02:18:01;;;;;;;;;;;;;;;19.35;75.21;99318.97;4995725;28;839;-67
2022/08/02 02:20:28;;;;;;;;;;;;;;;19.46;74.53;99323.25;4995668;28;847;-67
2022/08/02 02:22:55;;;;;;;;;;;;;;;19.50;74.16;99319.06;4995681;28;823;-66
2022/08/02 02:25:22;;;;;;;;;;;;;;;19.53;73.90;99322.94;4995603;28;878;-67
2022/08/02 02:28:02;;;;;;;;;;;;;;;19.55;73.58;99326.78;4995620;28;878;-67
2022/08/02 02:30:30;;;;;;;;;;;;;;;19.54;73.43;99324.47;4995401;28;1890;-66
2022/08/02 02:32:58;;;;;;;;;;;;;;;19.56;73.26;99324.75;4995879;28;921;-66
2022/08/02 02:39:01;;;;;;;;;;;;;;;19.50;73.40;99324.66;4995430;28;661;-67
2022/08/02 02:41:27;;;;;;;;;;;;;;;19.49;73.30;99330.72;4994081;28;1288;-67
2022/08/02 02:43:55;;;;;;;;;;;;;;;19.52;73.33;99330.56;4977515;28;1645;-65
2022/08/02 02:46:22;;;;;;;;;;;;;;;19.57;73.12;99329.91;4995193;28;803;-66
2022/08/02 02:48:50;;;;;;;;;;;;;;;19.68;72.82;99331.41;4977593;28;1368;-66
2022/08/02 02:51:17;;;;;;;;;;;;;;;19.77;72.44;99329.31;4995216;28;1910;-66
2022/08/02 02:53:47;;;;;;;;;;;;;;;19.92;71.84;99332.19;4995152;28;823;-66
2022/08/02 02:56:21;;;;;;;;;;;;;;;20.02;71.31;99338.53;4995302;28;911;-67
2022/08/02 02:58:48;;;;;;;;;;;;;;;20.10;71.09;99344.53;4995273;28;859;-66
2022/08/02 03:01:28;;;;;;;;;;;;;;;20.14;70.84;99337.50;4977499;28;1397;-67
2022/08/02 03:03:55;;;;;;;;;;;;;;;20.17;70.44;99338.56;4994942;28;815;-66
2022/08/02 03:06:25;;;;;;;;;;;;;;;20.19;70.47;99336.81;4994957;28;819;-66
2022/08/02 03:08:53;;;;;;;;;;;;;;;20.19;70.30;99350.84;4977322;28;1294;-66
2022/08/02 03:11:18;;;;;;;;;;;;;;;20.19;70.41;99350.84;4994894;28;1954;-67
2022/08/02 03:13:46;;;;;;;;;;;;;;;20.18;70.40;99345.72;4994783;28;854;-67
2022/08/02 03:16:13;;;;;;;;;;;;;;;20.17;70.42;99344.94;4994935;28;901;-67
2022/08/02 03:18:40;;;;;;;;;;;;;;;20.15;70.50;99341.84;4993926;28;815;-67
2022/08/02 03:21:12;;;;;;;;;;;;;;;20.12;70.77;99342.81;4994612;28;795;-66
2022/08/02 03:23:41;;;;;;;;;;;;;;;20.11;70.69;99346.84;4994636;28;878;-66
2022/08/02 03:26:08;;;;;;;;;;;;;;;20.12;70.65;99342.81;4994481;28;878;-66
2022/08/02 03:28:34;;;;;;;;;;;;;;;20.14;70.76;99345.91;4977126;28;1422;-66
2022/08/02 03:31:01;;;;;;;;;;;;;;;20.18;70.68;99356.94;4994289;28;2293;-65
2022/08/02 03:33:27;;;;;;;;;;;;;;;20.22;70.59;99356.75;4994403;28;811;-67
2022/08/02 03:36:02;;;;;;;;;;;;;;;20.28;70.24;99364.03;4994352;28;811;-67
2022/08/02 03:38:31;;;;;;;;;;;;;;;20.34;70.31;99366.97;4976807;28;921;-66
2022/08/02 03:41:02;;;;;;;;;;;;;;;20.34;70.15;99364.91;4994288;28;867;-66
2022/08/02 03:43:29;;;;;;;;;;;;;;;20.35;70.19;99371.28;4994568;28;823;-66
2022/08/02 03:45:57;;;;;;;;;;;;;;;20.38;70.16;99373.16;4993896;28;1297;-66
2022/08/02 03:48:24;;;;;;;;;;;;;;;20.42;70.06;99376.56;4994155;28;879;-67
2022/08/02 03:50:54;;;;;;;;;;;;;;;20.51;69.80;99378.50;4993992;28;1971;-67
2022/08/02 03:53:21;;;;;;;;;;;;;;;20.61;69.34;99371.56;4976520;28;1253;-66
2022/08/02 04:07:58;;;;;;;;;;;;;;;21.07;68.14;99387.97;4994115;28;617;-66
2022/08/02 04:10:25;;;;;;;;;;;;;;;21.15;67.76;99393.97;4993574;28;1898;-67
2022/08/02 04:12:52;;;;;;;;;;;;;;;21.22;67.55;99387.94;4993706;28;924;-66
2022/08/02 04:15:18;;;;;;;;;;;;;;;21.26;67.15;99384.94;4993545;28;870;-66
2022/08/02 04:17:55;;;;;;;;;;;;;;;21.26;67.34;99388.53;4993530;28;854;-65
2022/08/02 04:32:33;;;;;;;;;;;;;;;21.38;66.67;99384.63;4993639;28;920;-66
2022/08/02 04:35:00;;;;;;;;;;;;;;;21.43;66.32;99388.06;4993451;28;853;-66
2022/08/02 04:40:29;;;;;;;;;;;;;;;21.58;66.01;99388.78;4993190;28;613;-65
2022/08/02 04:42:56;;;;;;;;;;;;;;;21.65;65.69;99385.56;4993123;28;818;-65
2022/08/02 04:45:24;;;;;;;;;;;;;;;21.75;65.59;99384.19;4992793;28;1267;-66
2022/08/02 04:47:51;;;;;;;;;;;;;;;21.84;65.58;99388.13;4993077;28;921;-66
2022/08/02 04:50:19;;;;;;;;;;;;;;;21.97;65.00;99389.31;4992891;28;1973;-66
2022/08/02 04:53:17;;;;;;;;;;;;;;;22.10;63.96;99397.41;4992837;28;834;-67
2022/08/02 04:55:44;;;;;;;;;;;;;;;22.21;63.11;99402.41;4992896;28;799;-66
2022/08/02 04:58:12;;;;;;;;;;;;;;;22.43;62.41;99396.31;4992780;28;796;-67
2022/08/02 05:00:38;;;;;;;;;;;;;;;22.73;61.48;99401.78;4992675;28;1020;-66
2022/08/02 05:15:17;;;;;;;;;;;;;;;22.59;61.06;99397.78;4992904;28;614;-66
2022/08/02 05:17:45;;;;;;;;;;;;;;;22.63;60.83;99404.72;4992480;28;827;-65
2022/08/02 05:20:14;;;;;;;;;;;;;;;22.72;60.60;99408.66;4992469;28;819;-66
2022/08/02 05:22:41;;;;;;;;;;;;;;;22.82;60.29;99410.06;4992424;28;824;-65
2022/08/02 05:25:10;;;;;;;;;;;;;;;22.91;59.80;99406.28;4992399;28;843;-65
2022/08/02 05:27:37;;;;;;;;;;;;;;;22.96;59.70;99417.63;4992408;28;827;-65
2022/08/02 05:30:04;;;;;;;;;;;;;;;23.13;59.68;99415.00;4992385;28;819;-65
2022/08/02 05:32:31;;;;;;;;;;;;;;;23.31;58.88;99418.72;4992539;28;989;-65
2022/08/02 05:34:59;;;;;;;;;;;;;;;23.39;58.55;99417.00;4974913;28;834;-67
2022/08/02 05:37:25;;;;;;;;;;;;;;;23.60;58.21;99420.50;4992239;28;894;-66
2022/08/02 05:42:55;;;;;;;;;;;;;;;23.88;56.74;99428.41;4992185;28;614;-65
2022/08/02 05:45:22;;;;;;;;;;;;;;;24.15;55.59;99432.63;4974536;28;1400;-66
2022/08/02 05:47:50;;;;;;;;;;;;;;;24.56;54.55;99432.31;4992233;28;926;-66
2022/08/02 05:50:16;;;;;;;;;;;;;;;25.26;52.16;99436.34;4974486;28;1911;-66
2022/08/02 05:52:53;;;;;;;;;;;;;;;25.94;50.35;99428.59;4992186;28;854;-66
2022/08/02 05:55:51;;;;;;;;;;;;;;;26.65;48.50;99433.75;4974686;28;1292;-66
2022/08/02 05:58:17;;;;;;;;;;;;;;;27.38;46.83;99438.19;4992086;28;832;-66
2022/08/02 06:00:48;;;;;;;;;;;;;;;27.26;46.26;99433.91;4992194;28;889;-66
2022/08/02 06:03:31;;;;;;;;;;;;;;;25.87;49.84;99443.25;4992032;28;815;-66
2022/08/02 06:09:14;;;;;;;;;;;;;;;27.00;47.08;99437.91;4992053;28;598;-66
2022/08/02 06:14:42;;;;;;;;;;;;;;;25.44;50.07;99433.00;4991974;28;610;-67
2022/08/02 06:17:09;;;;;;;;;;;;;;;25.82;50.12;99427.81;4991860;28;847;-65
2022/08/02 06:19:38;;;;;;;;;;;;;;;25.70;49.73;99434.00;4991910;28;835;-66
2022/08/02 06:22:16;;;;;;;;;;;;;;;24.98;51.43;99427.81;4991867;28;811;-67
2022/08/02 06:24:43;;;;;;;;;;;;;;;25.07;51.76;99438.84;4992086;28;855;-66
2022/08/02 06:27:12;;;;;;;;;;;;;;;27.23;47.58;99427.22;4992286;28;867;-65
2022/08/02 06:29:45;;;;;;;;;;;;;;;28.81;43.22;99428.38;4991782;28;832;-66
2022/08/02 06:35:14;;;;;;;;;;;;;;;29.96;40.50;99420.28;4991881;28;721;-68
2022/08/02 06:37:44;;;;;;;;;;;;;;;29.01;41.66;99423.44;4991928;28;879;-65
2022/08/02 06:43:16;;;;;;;;;;;;;;;28.95;41.89;99408.53;4991651;28;669;-66
2022/08/02 06:45:43;;;;;;;;;;;;;;;29.13;41.19;99418.38;4991718;28;1421;-67
2022/08/02 06:48:12;;;;;;;;;;;;;;;29.36;41.04;99425.22;4992462;28;827;-67
2022/08/02 06:50:42;;;;;;;;;;;;;;;29.33;41.04;99423.47;4991594;28;1919;-67
2022/08/02 07:05:20;;;;;;;;;;;;;;;30.24;38.92;99437.63;4995104;28;680;-69
2022/08/02 07:10:48;;;;;;;;;;;;;;;30.28;38.54;99437.28;4994748;28;1962;-67
2022/08/02 07:13:15;;;;;;;;;;;;;;;30.74;37.91;99437.88;4977221;28;1292;-66
2022/08/02 07:15:41;;;;;;;;;;;;;;;31.06;37.00;99440.53;4994717;28;976;-67
2022/08/02 07:30:21;;;;;;;;;;;;;;;30.37;37.39;99416.91;4994792;28;1898;-65
2022/08/02 07:32:47;;;;;;;;;;;;;;;30.33;37.29;99419.31;4994359;28;1031;-67
2022/08/02 07:35:14;;;;;;;;;;;;;;;30.46;37.68;99427.84;4994389;28;847;-67
2022/08/02 07:37:42;;;;;;;;;;;;;;;30.96;36.85;99419.53;4994343;28;851;-66
2022/08/02 07:40:11;;;;;;;;;;;;;;;31.64;35.81;99417.88;4994347;28;819;-66
2022/08/02 07:42:37;;;;;;;;;;;;;;;31.69;35.43;99425.53;4994120;28;841;-66
2022/08/02 07:45:04;;;;;;;;;;;;;;;31.71;35.59;99417.16;4994116;28;1295;-67
2022/08/02 07:59:45;;;;;;;;;;;;;;;32.88;33.44;99435.16;4994277;28;661;-67
2022/08/02 08:02:13;;;;;;;;;;;;;;;33.10;33.09;99430.06;4993924;28;796;-67
2022/08/02 08:04:40;;;;;;;;;;;;;;;33.56;32.24;99432.97;4993582;28;800;-67
2022/08/02 08:07:09;;;;;;;;;;;;;;;33.69;32.19;99429.94;4993788;28;831;-66
2022/08/02 08:09:43;;;;;;;;;;;;;;;33.84;32.21;99426.31;4976227;28;994;-66
2022/08/02 08:12:10;;;;;;;;;;;;;;;33.88;32.16;99429.50;4993813;28;1956;-67
2022/08/02 08:14:38;;;;;;;;;;;;;;;33.96;31.76;99423.78;4994208;28;877;-66
2022/08/02 08:20:07;;;;;;;;;;;;;;;33.64;32.30;99418.66;4993598;28;610;-66
2022/08/02 08:22:34;;;;;;;;;;;;;;;33.75;31.99;99413.28;4993558;28;882;-66
2022/08/02 08:25:00;;;;;;;;;;;;;;;33.50;32.71;99409.47;4993537;28;855;-67
2022/08/02 08:27:28;;;;;;;;;;;;;;;33.28;33.03;99422.44;4993600;28;800;-67
2022/08/02 08:29:54;;;;;;;;;;;;;;;33.51;32.79;99420.34;4975780;28;1214;-69
2022/08/02 08:32:20;;;;;;;;;;;;;;;34.20;32.14;99419.53;4993491;28;1890;-67
2022/08/02 08:34:47;;;;;;;;;;;;;;;33.60;32.21;99426.88;4993240;28;873;-66
2022/08/02 08:37:14;;;;;;;;;;;;;;;33.04;33.00;99430.22;4993307;28;863;-66
2022/08/02 08:39:41;;;;;;;;;;;;;;;33.01;33.70;99422.78;4993177;28;859;-66
2022/08/02 08:42:08;;;;;;;;;;;;;;;33.42;33.71;99423.06;4993114;28;843;-66
2022/08/02 08:44:35;;;;;;;;;;;;;;;33.23;33.45;99432.75;4992788;28;1485;-67
2022/08/02 08:47:03;;;;;;;;;;;;;;;31.82;35.57;99433.25;4993090;28;784;-67
2022/08/02 08:49:31;;;;;;;;;;;;;;;30.74;37.61;99426.47;4992923;28;874;-67
2022/08/02 08:52:02;;;;;;;;;;;;;;;32.28;35.21;99428.56;4992912;28;1914;-68
2022/08/02 08:54:30;;;;;;;;;;;;;;;32.15;34.59;99425.84;4992873;28;835;-68
2022/08/02 08:56:56;;;;;;;;;;;;;;;31.50;36.37;99415.09;4993419;28;763;-68
2022/08/02 08:59:22;;;;;;;;;;;;;;;31.24;36.35;99418.06;4992885;28;799;-67
2022/08/02 09:01:50;;;;;;;;;;;;;;;29.91;38.49;99422.72;4992808;28;869;-67
2022/08/02 09:04:17;;;;;;;;;;;;;;;30.39;38.55;99419.97;4992713;28;853;-67
2022/08/02 09:06:44;;;;;;;;;;;;;;;32.18;35.87;99410.44;4992749;28;906;-67
2022/08/02 09:09:09;;;;;;;;;;;;;;;33.41;33.72;99415.78;4992636;28;940;-67
2022/08/02 09:11:36;;;;;;;;;;;;;;;34.45;31.81;99419.66;4992552;28;1953;-66
2022/08/02 09:14:03;;;;;;;;;;;;;;;34.50;30.97;99412.16;4992590;28;866;-68
2022/08/02 09:16:33;;;;;;;;;;;;;;;34.34;30.58;99420.06;4991942;28;882;-66
2022/08/02 09:19:15;;;;;;;;;;;;;;;32.63;33.05;99414.84;4993171;28;796;-67
2022/08/02 09:21:43;;;;;;;;;;;;;;;31.96;34.43;99408.94;4992451;28;941;-67
2022/08/02 09:24:17;;;;;;;;;;;;;;;32.74;33.07;99410.88;4992628;28;792;-67
2022/08/02 09:26:43;;;;;;;;;;;;;;;31.89;34.24;99409.66;4992684;28;831;-67
2022/08/02 09:29:10;;;;;;;;;;;;;;;31.45;34.82;99409.53;4992578;28;839;-66
2022/08/02 09:31:36;;;;;;;;;;;;;;;30.98;35.96;99410.41;4993026;28;1977;-67
2022/08/02 09:34:03;;;;;;;;;;;;;;;31.60;35.26;99401.09;4992675;28;771;-67
2022/08/02 09:36:43;;;;;;;;;;;;;;;30.96;35.98;99407.34;4992349;28;839;-67
2022/08/02 09:39:11;;;;;;;;;;;;;;;30.02;37.62;99410.34;4992141;28;823;-67
2022/08/02 09:41:42;;;;;;;;;;;;;;;29.35;38.61;99405.84;4992199;28;807;-67
2022/08/02 09:44:11;;;;;;;;;;;;;;;28.94;39.53;99407.75;4991999;28;1383;-67
2022/08/02 09:46:38;;;;;;;;;;;;;;;28.74;40.57;99411.16;4992233;28;878;-66
2022/08/02 09:49:09;;;;;;;;;;;;;;;29.06;39.58;99400.59;4992302;28;803;-67
2022/08/02 09:51:40;;;;;;;;;;;;;;;29.80;38.39;99396.53;4992154;28;1915;-67
2022/08/02 09:54:08;;;;;;;;;;;;;;;30.93;37.65;99392.84;4974646;28;1355;-68
2022/08/02 09:57:00;;;;;;;;;;;;;;;31.85;36.47;99397.81;4992093;28;800;-68
2022/08/02 09:59:27;;;;;;;;;;;;;;;31.79;35.13;99405.78;4989561;28;1051;-68
2022/08/02 10:01:56;;;;;;;;;;;;;;;31.91;34.86;99392.72;4992096;28;823;-68
2022/08/02 10:32:48;;;;;;;;;;;;;;;30.53;35.79;99387.28;5658706;23;1528;-65
2022/08/02 10:35:17;;;;;;;;;;;;;;;30.08;36.78;99393.13;4995717;28;826;-66
2022/08/02 10:37:45;;;;;;;;;;;;;;;29.88;37.07;99389.63;4978010;28;1746;-65
2022/08/02 10:40:25;;;;;;;;;;;;;;;29.89;37.47;99393.22;4995384;28;799;-64
2022/08/02 10:42:58;;;;;;;;;;;;;;;29.24;38.25;99390.50;4995404;28;870;-66
2022/08/02 10:45:24;;;;;;;;;;;;;;;28.74;39.35;99394.84;4995365;28;831;-65
2022/08/02 10:48:06;;;;;;;;;;;;;;;28.35;40.18;99403.91;4995332;28;814;-66
2022/08/02 10:51:00;;;;;;;;;;;;;;;28.02;40.58;99397.34;4995177;28;1951;-66
2022/08/02 10:53:45;;;;;;;;;;;;;;;28.50;39.84;99393.63;4995390;28;877;-66
2022/08/02 10:56:11;;;;;;;;;;;;;;;29.27;39.00;99388.63;4995120;28;806;-65
2022/08/02 10:58:38;;;;;;;;;;;;;;;30.65;37.19;99390.63;4995126;28;823;-65
2022/08/02 11:01:25;;;;;;;;;;;;;;;30.90;35.85;99378.94;4995056;28;819;-65
2022/08/02 11:03:56;;;;;;;;;;;;;;;31.52;35.05;99371.72;4994847;28;1006;-65
2022/08/02 11:06:23;;;;;;;;;;;;;;;31.83;34.41;99377.63;4995231;28;911;-64
2022/08/02 11:09:10;;;;;;;;;;;;;;;32.72;33.32;99379.97;4995203;28;819;-65
2022/08/02 11:11:57;;;;;;;;;;;;;;;33.40;31.67;99383.50;4994459;28;1886;-64
2022/08/02 11:14:23;;;;;;;;;;;;;;;34.12;30.85;99385.16;4994686;28;1026;-65
2022/08/02 11:20:11;;;;;;;;;;;;;;;32.66;31.77;99381.47;4994748;28;669;-64
2022/08/02 11:22:38;;;;;;;;;;;;;;;30.83;34.48;99383.22;4994647;28;897;-66
2022/08/02 11:25:23;;;;;;;;;;;;;;;29.90;35.82;99374.84;4994553;28;850;-65
2022/08/02 11:27:53;;;;;;;;;;;;;;;29.36;37.18;99384.59;4994590;28;889;-66
2022/08/02 11:30:20;;;;;;;;;;;;;;;29.10;37.31;99381.16;4994381;28;1941;-65
2022/08/02 11:32:47;;;;;;;;;;;;;;;29.50;36.91;99374.78;4994372;28;1434;-66
2022/08/02 11:35:15;;;;;;;;;;;;;;;31.29;34.96;99375.13;4994359;28;1047;-66
2022/08/02 11:37:43;;;;;;;;;;;;;;;33.13;32.54;99372.44;4994038;28;857;-64
2022/08/02 11:40:14;;;;;;;;;;;;;;;34.06;31.42;99366.63;4994189;28;906;-64
2022/08/02 11:42:43;;;;;;;;;;;;;;;34.96;29.63;99363.16;4976790;28;1317;-64
2022/08/02 11:45:10;;;;;;;;;;;;;;;35.39;28.52;99358.22;4994200;28;822;-64
2022/08/02 11:47:47;;;;;;;;;;;;;;;35.52;28.65;99360.03;4994195;28;788;-63
2022/08/02 12:02:26;;;;;;;;;;;;;;;36.02;28.01;99353.38;4994191;28;618;-63
2022/08/02 12:04:53;;;;;;;;;;;;;;;36.55;26.85;99349.88;4994173;28;870;-63
2022/08/02 12:07:24;;;;;;;;;;;;;;;36.87;26.27;99353.84;4993841;28;792;-64
2022/08/02 12:09:51;;;;;;;;;;;;;;;36.96;25.97;99355.25;4993801;28;808;-64
2022/08/02 12:15:29;;;;;;;;;;;;;;;36.51;25.14;99351.63;4994046;28;637;-64
2022/08/02 12:20:40;;;;;;;;;;;;;;;37.07;25.30;99348.16;4993600;28;617;-63
2022/08/02 12:23:13;;;;;;;;;;;;;;;37.17;24.95;99349.75;4993535;28;799;-63
2022/08/02 12:25:40;;;;;;;;;;;;;;;35.38;26.63;99345.22;4993508;28;890;-65
2022/08/02 12:28:14;;;;;;;;;;;;;;;33.58;28.99;99343.59;4993432;28;814;-65
2022/08/02 12:30:51;;;;;;;;;;;;;;;34.10;28.78;99335.47;4993237;28;1914;-64
2022/08/02 12:33:18;;;;;;;;;;;;;;;33.88;29.16;99346.41;4993446;28;1306;-66
2022/08/02 12:38:58;;;;;;;;;;;;;;;37.18;25.68;99353.38;4969807;28;1021;-64
2022/08/02 12:41:27;;;;;;;;;;;;;;;36.44;25.68;99349.63;4993128;28;885;-65
2022/08/02 12:43:56;;;;;;;;;;;;;;;34.72;27.19;99347.44;4993074;28;1121;-65
2022/08/02 12:46:23;;;;;;;;;;;;;;;33.46;28.06;99341.13;4975636;28;827;-65
2022/08/02 12:48:49;;;;;;;;;;;;;;;32.17;30.56;99348.13;4975564;28;1218;-64
2022/08/02 12:51:28;;;;;;;;;;;;;;;33.07;30.22;99340.34;4992009;28;1977;-66
2022/08/02 12:54:10;;;;;;;;;;;;;;;35.09;27.62;99334.13;4993126;28;810;-63
2022/08/02 12:56:38;;;;;;;;;;;;;;;36.70;26.04;99339.50;4993795;28;823;-64
2022/08/02 12:59:05;;;;;;;;;;;;;;;37.19;25.31;99344.16;4993627;28;807;-65
2022/08/02 13:01:31;;;;;;;;;;;;;;;35.93;26.19;99347.00;4993297;28;839;-64
2022/08/02 13:04:00;;;;;;;;;;;;;;;34.20;28.26;99347.84;4993131;28;847;-65
2022/08/02 13:06:26;;;;;;;;;;;;;;;33.09;29.50;99354.09;4993157;28;850;-65
2022/08/02 13:08:54;;;;;;;;;;;;;;;33.06;29.86;99361.72;4992991;28;917;-67
2022/08/02 13:11:21;;;;;;;;;;;;;;;32.79;30.55;99332.69;4992779;28;2029;-64
2022/08/02 13:13:48;;;;;;;;;;;;;;;32.68;30.71;99364.50;4975410;28;1166;-65
2022/08/02 13:16:14;;;;;;;;;;;;;;;34.19;28.71;99354.94;4992759;28;827;-65
2022/08/02 13:18:42;;;;;;;;;;;;;;;36.41;26.94;99356.59;4992842;28;940;-66
2022/08/02 13:21:09;;;;;;;;;;;;;;;37.73;24.55;99348.22;4992662;28;902;-64
2022/08/02 13:23:36;;;;;;;;;;;;;;;38.09;23.74;99350.22;4992846;28;870;-63
2022/08/02 13:26:03;;;;;;;;;;;;;;;37.78;23.92;99350.03;4992671;28;843;-64
2022/08/02 13:28:30;;;;;;;;;;;;;;;37.75;23.85;99345.50;4992623;28;859;-64
2022/08/02 13:30:57;;;;;;;;;;;;;;;36.84;24.95;99354.28;4992333;28;1977;-65
2022/08/02 13:33:23;;;;;;;;;;;;;;;34.87;27.41;99358.06;4992625;28;1433;-65
2022/08/02 13:35:49;;;;;;;;;;;;;;;33.35;28.83;99359.47;4992530;28;870;-65
2022/08/02 13:38:17;;;;;;;;;;;;;;;32.58;30.02;99357.81;4992787;28;807;-65
2022/08/02 13:43:28;;;;;;;;;;;;;;;33.45;29.83;99350.28;4992280;28;598;-64
2022/08/02 13:45:55;;;;;;;;;;;;;;;35.37;27.90;99349.44;4992140;28;812;-65
2022/08/02 13:48:36;;;;;;;;;;;;;;;37.32;25.53;99356.59;4992167;28;836;-66
2022/08/02 13:51:04;;;;;;;;;;;;;;;36.54;24.67;99359.84;4992106;28;1981;-66
2022/08/02 13:53:30;;;;;;;;;;;;;;;34.56;26.72;99353.22;4992024;28;882;-65
2022/08/02 13:55:58;;;;;;;;;;;;;;;33.17;28.55;99362.72;4992204;28;882;-65
2022/08/02 13:58:24;;;;;;;;;;;;;;;32.32;29.67;99353.88;4992118;28;823;-65
2022/08/02 14:00:51;;;;;;;;;;;;;;;31.86;30.75;99353.66;4991934;28;874;-64
2022/08/02 14:03:18;;;;;;;;;;;;;;;31.93;31.29;99362.25;4996025;28;854;-65
2022/08/02 14:05:44;;;;;;;;;;;;;;;33.91;29.28;99347.38;4978596;28;1221;-65
2022/08/02 14:08:11;;;;;;;;;;;;;;;35.29;27.89;99345.88;4978482;28;1515;-66
2022/08/02 14:10:36;;;;;;;;;;;;;;;35.40;27.43;99350.38;4995948;28;1894;-65
2022/08/02 14:13:03;;;;;;;;;;;;;;;34.26;28.63;99348.41;4995898;28;906;-65
2022/08/02 14:15:29;;;;;;;;;;;;;;;33.43;29.37;99350.84;4995913;28;827;-65
2022/08/02 14:17:56;;;;;;;;;;;;;;;32.51;30.22;99365.78;4978492;28;810;-65
2022/08/02 14:20:23;;;;;;;;;;;;;;;32.36;30.38;99360.00;4996061;28;810;-66
2022/08/02 14:22:49;;;;;;;;;;;;;;;32.51;30.34;99362.16;4995835;28;771;-65
2022/08/02 14:37:41;;;;;;;;;;;;;;;32.58;30.57;99357.81;4994080;28;1250;-65
2022/08/02 14:40:08;;;;;;;;;;;;;;;32.32;30.97;99368.19;4978006;28;871;-63
2022/08/02 14:42:34;;;;;;;;;;;;;;;31.71;31.95;99366.50;4995399;28;819;-65
2022/08/02 14:45:01;;;;;;;;;;;;;;;31.67;31.89;99359.63;4995568;28;824;-65
2022/08/02 14:47:27;;;;;;;;;;;;;;;32.13;31.68;99360.69;4995371;28;858;-65
2022/08/02 14:49:59;;;;;;;;;;;;;;;32.80;30.57;99359.97;4995262;28;862;-64
2022/08/02 14:52:25;;;;;;;;;;;;;;;33.22;29.63;99362.50;4995157;28;1914;-66
2022/08/02 14:54:52;;;;;;;;;;;;;;;33.25;29.88;99367.09;4977671;28;1213;-65
2022/08/02 14:57:19;;;;;;;;;;;;;;;33.92;29.13;99360.34;4995154;28;875;-65
2022/08/02 14:59:46;;;;;;;;;;;;;;;34.32;28.89;99356.78;4994956;28;902;-66
2022/08/02 15:02:12;;;;;;;;;;;;;;;33.87;29.24;99353.47;4995032;28;878;-66
2022/08/02 15:04:40;;;;;;;;;;;;;;;32.98;30.06;99352.34;4995036;28;830;-65
2022/08/02 15:07:06;;;;;;;;;;;;;;;32.48;30.61;99360.44;4977502;28;1343;-65
2022/08/02 15:09:33;;;;;;;;;;;;;;;32.58;30.92;99347.13;4994924;28;843;-66
2022/08/02 15:11:59;;;;;;;;;;;;;;;33.02;30.46;99354.84;4994758;28;1943;-65
2022/08/02 15:14:26;;;;;;;;;;;;;;;33.10;29.37;99344.97;4994152;28;815;-66
2022/08/02 15:16:55;;;;;;;;;;;;;;;32.93;29.23;99345.50;4994782;28;894;-65
2022/08/02 15:19:22;;;;;;;;;;;;;;;33.13;29.58;99340.19;4977239;28;1348;-66
2022/08/02 15:21:48;;;;;;;;;;;;;;;33.32;28.97;99337.69;4994686;28;847;-66
2022/08/02 15:24:15;;;;;;;;;;;;;;;33.34;29.34;99345.72;4994668;28;799;-66
2022/08/02 15:26:42;;;;;;;;;;;;;;;33.51;29.16;99343.03;4994814;28;819;-66
2022/08/02 15:29:11;;;;;;;;;;;;;;;33.64;28.73;99341.31;4994470;28;928;-66
2022/08/02 15:31:38;;;;;;;;;;;;;;;33.95;28.53;99347.75;4994562;28;1890;-65
2022/08/02 15:34:05;;;;;;;;;;;;;;;34.23;28.36;99340.97;4976942;28;1478;-65
2022/08/02 15:36:31;;;;;;;;;;;;;;;34.64;28.03;99346.72;4994297;28;1224;-66
2022/08/02 15:38:58;;;;;;;;;;;;;;;34.46;28.23;99345.81;4994540;28;835;-66
2022/08/02 15:41:25;;;;;;;;;;;;;;;34.29;28.20;99353.00;4994409;28;792;-66
2022/08/02 15:43:51;;;;;;;;;;;;;;;33.67;29.04;99355.25;4975902;28;1260;-66
2022/08/02 15:46:18;;;;;;;;;;;;;;;33.00;30.10;99354.66;4994407;28;807;-66
2022/08/02 15:48:45;;;;;;;;;;;;;;;32.57;30.83;99351.34;4994187;28;848;-65
2022/08/02 15:51:12;;;;;;;;;;;;;;;32.09;31.42;99356.66;4994253;28;1907;-66
2022/08/02 15:53:39;;;;;;;;;;;;;;;31.59;32.04;99353.09;4994441;28;820;-66
2022/08/02 15:56:06;;;;;;;;;;;;;;;31.00;32.77;99356.41;4994050;28;819;-66
2022/08/02 15:58:32;;;;;;;;;;;;;;;30.48;33.75;99359.63;4993856;28;867;-65
2022/08/02 16:00:59;;;;;;;;;;;;;;;30.06;34.48;99358.72;4993978;28;843;-65
2022/08/02 16:03:26;;;;;;;;;;;;;;;29.80;34.94;99368.81;4992493;28;1373;-64